Time;durP1;ratioP1;P1;durP2;ratioP2;P2;SDS_P1;SDS_P2;PMS_P1;PMS_P2;Temp;Humidity;BMP_temperature;BMP_pressure;BME280_temperature;BME280_humidity;BME280_pressure;Samples;Min_cycle;Max_cycle;Signal;HPM_P1;HPM_P2
2022/03/18 00:00:26;;;;;;;3.38;2.28;;;;;;;21.01;nan;100117.59;5111925;28;20048;-60
2022/03/18 00:02:53;;;;;;;3.10;2.28;;;;;;;20.99;nan;100128.25;5111910;28;20182;-60
2022/03/18 00:05:19;;;;;;;3.83;2.75;;;;;;;21.00;nan;100125.13;5111864;28;20040;-60
2022/03/18 00:07:46;;;;;;;3.53;2.70;;;;;;;20.99;nan;100125.47;5112022;28;20047;-60
2022/03/18 00:10:13;;;;;;;3.40;2.50;;;;;;;20.99;nan;100122.69;5111931;28;20039;-60
2022/03/18 00:12:38;;;;;;;3.30;2.22;;;;;;;20.98;nan;100112.75;5111832;28;20056;-60
2022/03/18 00:15:09;;;;;;;3.78;2.67;;;;;;;20.98;nan;100118.31;5111625;28;20062;-60
2022/03/18 00:17:35;;;;;;;3.55;2.55;;;;;;;20.98;nan;100127.47;5111331;28;20419;-60
2022/03/18 00:20:00;;;;;;;3.30;2.47;;;;;;;20.97;nan;100116.69;5111776;28;20523;-60
2022/03/18 00:22:26;;;;;;;3.30;2.22;;;;;;;20.98;nan;100126.66;5111579;28;20078;-60
2022/03/18 00:24:51;;;;;;;3.53;2.63;;;;;;;20.98;nan;100127.47;5111568;28;20044;-60
2022/03/18 00:27:17;;;;;;;3.42;2.60;;;;;;;20.97;nan;100125.03;5111569;28;20415;-60
2022/03/18 00:29:42;;;;;;;3.53;2.60;;;;;;;20.99;nan;100125.47;5111561;28;20511;-60
2022/03/18 00:32:09;;;;;;;3.53;2.60;;;;;;;20.99;nan;100126.28;5111458;28;20466;-60
2022/03/18 00:34:35;;;;;;;3.25;2.42;;;;;;;20.99;nan;100117.13;5111466;28;20051;-60
2022/03/18 00:37:00;;;;;;;3.38;2.40;;;;;;;20.99;nan;100125.47;5111320;28;20052;-60
2022/03/18 00:39:26;;;;;;;3.05;2.33;;;;;;;20.99;nan;100125.47;5111079;28;21353;-60
2022/03/18 00:41:51;;;;;;;3.60;2.50;;;;;;;20.97;nan;100111.13;5111297;28;20043;-60
2022/03/18 00:44:17;;;;;;;3.33;2.40;;;;;;;20.98;nan;100123.88;5111366;28;20404;-60
2022/03/18 00:46:43;;;;;;;3.55;2.53;;;;;;;20.96;nan;100115.88;5111274;28;20403;-60
2022/03/18 00:52:05;;;;;;;3.28;2.20;;;;;;;20.98;nan;100109.97;5111389;28;20051;-60
2022/03/18 00:54:36;;;;;;;3.42;2.45;;;;;;;20.97;nan;100109.16;5111031;28;20522;-59
2022/03/18 00:57:02;;;;;;;3.72;2.20;;;;;;;20.96;nan;100118.66;5111241;28;20047;-57
2022/03/18 00:59:28;;;;;;;3.13;2.28;;;;;;;20.98;nan;100107.19;5110767;28;20086;-57
2022/03/18 01:01:54;;;;;;;3.20;2.28;;;;;;;20.99;nan;100112.38;5110919;28;20093;-57
2022/03/18 01:04:20;;;;;;;3.50;2.42;;;;;;;20.98;nan;100116.31;5110718;28;20040;-57
2022/03/18 01:06:46;;;;;;;3.17;2.40;;;;;;;20.97;nan;100108.34;5110044;28;20090;-57
2022/03/18 01:09:12;;;;;;;3.40;2.53;;;;;;;21.00;nan;100099.28;5110897;28;20061;-57
2022/03/18 01:11:38;;;;;;;3.35;2.30;;;;;;;21.00;nan;100096.50;5110918;28;20131;-57
2022/03/18 01:14:03;;;;;;;3.20;2.30;;;;;;;21.01;nan;100112.03;5110890;28;20515;-60
2022/03/18 01:16:29;;;;;;;3.50;2.40;;;;;;;21.00;nan;100102.06;5110614;28;20043;-60
2022/03/18 01:18:54;;;;;;;3.05;2.20;;;;;;;21.01;nan;100112.84;5110817;28;20047;-60
2022/03/18 01:21:19;;;;;;;3.10;2.28;;;;;;;21.02;nan;100105.31;5110809;28;20435;-60
2022/03/18 01:23:45;;;;;;;3.17;2.28;;;;;;;21.03;nan;100109.69;5110581;28;20093;-60
2022/03/18 01:26:11;;;;;;;3.65;2.60;;;;;;;21.03;nan;100095.78;5110727;28;20114;-60
2022/03/18 01:28:36;;;;;;;4.00;2.10;;;;;;;21.03;nan;100104.94;5110177;28;20479;-60
2022/03/18 01:31:02;;;;;;;3.10;2.20;;;;;;;21.04;nan;100098.22;5109916;28;20463;-60
2022/03/18 01:33:27;;;;;;;3.40;2.30;;;;;;;21.04;nan;100098.22;5110740;28;20059;-60
2022/03/18 01:35:52;;;;;;;3.05;2.28;;;;;;;21.05;nan;100107.34;5110491;28;20452;-60
2022/03/18 01:38:18;;;;;;;3.05;2.13;;;;;;;21.04;nan;100100.19;5108122;28;20047;-60
2022/03/18 01:40:43;;;;;;;2.90;2.10;;;;;;;21.06;nan;100095.88;5110486;28;20044;-60
2022/03/18 01:43:10;;;;;;;3.47;2.58;;;;;;;21.06;nan;100100.63;5110570;28;20426;-60
2022/03/18 01:45:36;;;;;;;3.22;2.35;;;;;;;21.05;nan;100097.03;5110521;28;20044;-60
2022/03/18 01:48:05;;;;;;;3.13;1.90;;;;;;;21.04;nan;100100.19;5110441;28;20130;-60
2022/03/18 01:50:31;;;;;;;3.42;2.20;;;;;;;21.03;nan;100088.25;5110240;28;20055;-60
2022/03/18 01:52:58;;;;;;;2.95;2.00;;;;;;;21.04;nan;100092.66;5110189;28;20492;-60
2022/03/18 01:55:27;;;;;;;2.88;2.20;;;;;;;21.04;nan;100087.09;5110192;28;20423;-60
2022/03/18 01:57:52;;;;;;;3.00;2.28;;;;;;;21.05;nan;100082.31;5110163;28;20078;-60
2022/03/18 02:00:19;;;;;;;2.40;1.70;;;;;;;21.05;nan;100085.91;5110004;28;20435;-60
2022/03/18 02:02:46;;;;;;;3.13;2.20;;;;;;;21.05;nan;100087.88;5109839;28;20043;-60
2022/03/18 02:05:12;;;;;;;3.05;1.90;;;;;;;21.06;nan;100078.38;5109280;28;20809;-60
2022/03/18 02:07:38;;;;;;;3.05;2.20;;;;;;;21.05;nan;100076.75;5110282;28;20043;-60
2022/03/18 02:10:05;;;;;;;3.00;2.25;;;;;;;21.00;nan;100083.41;5110182;28;20043;-60
2022/03/18 02:12:30;;;;;;;2.95;2.05;;;;;;;21.03;nan;100081.88;5110107;28;20055;-60
2022/03/18 02:14:56;;;;;;;2.95;2.22;;;;;;;21.03;nan;100076.31;5109895;28;20055;-58
2022/03/18 02:17:21;;;;;;;2.85;1.90;;;;;;;21.04;nan;100075.16;5109650;28;20043;-57
2022/03/18 02:19:48;;;;;;;2.70;1.90;;;;;;;21.04;nan;100086.28;5109861;28;20501;-57
2022/03/18 02:22:21;;;;;;;2.53;1.65;;;;;;;21.02;nan;100074.72;5109956;28;20654;-57
2022/03/18 02:24:50;;;;;;;2.58;1.80;;;;;;;21.04;nan;100075.97;5110027;28;20096;-57
2022/03/18 02:27:15;;;;;;;2.85;1.83;;;;;;;21.04;nan;100069.59;5109772;28;20043;-57
2022/03/18 02:29:41;;;;;;;2.78;2.00;;;;;;;21.02;nan;100080.28;5109745;28;20048;-57
2022/03/18 02:32:07;;;;;;;3.03;2.20;;;;;;;21.02;nan;100080.28;5109781;28;20070;-57
2022/03/18 02:34:34;;;;;;;2.67;1.80;;;;;;;21.01;nan;100082.25;5109657;28;20140;-57
2022/03/18 02:37:00;;;;;;;2.92;2.13;;;;;;;21.02;nan;100085.84;5108858;28;20075;-57
2022/03/18 02:39:26;;;;;;;2.40;1.83;;;;;;;21.02;nan;100089.44;5109668;28;20403;-57
2022/03/18 02:41:52;;;;;;;3.17;2.03;;;;;;;21.00;nan;100090.94;5112616;28;20047;-57
2022/03/18 02:44:17;;;;;;;2.30;1.60;;;;;;;21.00;nan;100090.94;5113257;28;20132;-57
2022/03/18 02:46:43;;;;;;;2.60;1.77;;;;;;;21.01;nan;100082.25;5113160;28;20043;-57
2022/03/18 02:49:08;;;;;;;2.58;1.73;;;;;;;21.03;nan;100091.03;5113214;28;20496;-58
2022/03/18 02:51:41;;;;;;;2.47;1.60;;;;;;;21.01;nan;100090.59;5113030;28;20078;-60
2022/03/18 02:54:07;;;;;;;2.72;1.80;;;;;;;21.02;nan;100092.22;5113019;28;20047;-60
2022/03/18 02:56:34;;;;;;;2.35;1.70;;;;;;;21.02;nan;100099.75;5113206;28;20047;-60
2022/03/18 02:59:00;;;;;;;3.15;2.00;;;;;;;21.02;nan;100094.19;5113077;28;20419;-60
2022/03/18 03:01:32;;;;;;;2.10;1.50;;;;;;;21.01;nan;100098.94;5113157;28;20071;-60
2022/03/18 03:03:59;;;;;;;2.40;1.80;;;;;;;21.01;nan;100101.72;5113022;28;20055;-60
2022/03/18 03:09:08;;;;;;;2.58;1.80;;;;;;;21.00;nan;100099.28;5112854;28;20521;-57
2022/03/18 03:11:34;;;;;;;2.45;1.75;;;;;;;21.00;nan;100096.50;5112770;28;20052;-57
2022/03/18 03:14:00;;;;;;;2.88;1.60;;;;;;;21.02;nan;100097.78;5112811;28;20047;-57
2022/03/18 03:16:26;;;;;;;2.58;1.60;;;;;;;21.00;nan;100090.94;5112740;28;20579;-57
2022/03/18 03:18:52;;;;;;;2.90;1.90;;;;;;;21.03;nan;100106.91;5112760;28;20558;-57
2022/03/18 03:21:17;;;;;;;2.55;1.58;;;;;;;21.01;nan;100103.69;5112648;28;20048;-57
2022/03/18 03:23:42;;;;;;;2.40;1.70;;;;;;;21.00;nan;100104.84;5112777;28;20092;-57
2022/03/18 03:26:08;;;;;;;2.35;1.73;;;;;;;20.99;nan;100106.81;5112815;28;20063;-57
2022/03/18 03:28:35;;;;;;;2.70;1.70;;;;;;;20.96;nan;100104.75;5112527;28;20122;-57
2022/03/18 03:31:00;;;;;;;2.63;1.92;;;;;;;21.01;nan;100106.47;5112531;28;20044;-58
2022/03/18 03:33:26;;;;;;;2.55;1.70;;;;;;;21.00;nan;100105.66;5112512;28;20185;-57
2022/03/18 03:35:53;;;;;;;2.63;1.55;;;;;;;21.00;nan;100114.00;5112486;28;20473;-57
2022/03/18 03:38:19;;;;;;;2.58;1.80;;;;;;;21.00;nan;100118.75;5112571;28;20062;-57
2022/03/18 03:40:44;;;;;;;2.50;1.73;;;;;;;20.99;nan;100117.94;5112344;28;20403;-58
2022/03/18 03:43:10;;;;;;;2.53;1.70;;;;;;;20.98;nan;100110.78;5112219;28;20044;-57
2022/03/18 03:45:36;;;;;;;2.58;2.03;;;;;;;20.99;nan;100123.50;5112497;28;20495;-57
2022/03/18 03:48:02;;;;;;;2.60;1.90;;;;;;;20.99;nan;100126.28;5112478;28;20047;-57
2022/03/18 03:50:28;;;;;;;2.88;2.10;;;;;;;21.00;nan;100125.13;5112327;28;20044;-57
2022/03/18 03:52:53;;;;;;;2.83;2.03;;;;;;;20.99;nan;100125.47;5111803;28;20047;-58
2022/03/18 03:55:19;;;;;;;2.10;1.48;;;;;;;21.00;nan;100130.69;5112196;28;20039;-57
2022/03/18 03:57:44;;;;;;;2.45;1.63;;;;;;;21.00;nan;100129.88;5110043;28;20042;-57
2022/03/18 04:00:11;;;;;;;2.70;1.80;;;;;;;21.00;nan;100132.66;5111941;28;20063;-57
2022/03/18 04:02:37;;;;;;;2.10;1.40;;;;;;;21.00;nan;100135.44;5112010;28;20042;-58
2022/03/18 04:05:07;;;;;;;2.28;1.58;;;;;;;21.01;nan;100143.44;5111890;28;20040;-57
2022/03/18 04:07:37;;;;;;;2.35;1.40;;;;;;;20.99;nan;100136.59;5111996;28;20051;-57
2022/03/18 04:10:07;;;;;;;2.65;1.85;;;;;;;20.99;nan;100139.38;5112001;28;20047;-57
2022/03/18 04:12:33;;;;;;;2.53;1.85;;;;;;;20.97;nan;100139.75;5111691;28;20500;-57
2022/03/18 04:14:59;;;;;;;2.38;1.70;;;;;;;20.95;nan;100139.31;5111035;28;20576;-57
2022/03/18 04:17:26;;;;;;;2.60;1.55;;;;;;;20.97;nan;100150.06;5111419;28;20096;-56
2022/03/18 04:19:53;;;;;;;2.28;1.45;;;;;;;20.97;nan;100147.28;5111554;28;20055;-57
2022/03/18 04:22:21;;;;;;;2.47;1.80;;;;;;;20.97;nan;100155.63;5111613;28;20043;-57
2022/03/18 04:24:47;;;;;;;2.15;1.65;;;;;;;20.98;nan;100154.47;5111826;28;20047;-57
2022/03/18 04:27:12;;;;;;;2.28;1.50;;;;;;;20.97;nan;100159.22;5093321;28;20864;-57
2022/03/18 04:29:37;;;;;;;2.30;1.50;;;;;;;20.97;nan;100159.22;5111616;28;20520;-57
2022/03/18 04:32:03;;;;;;;1.95;1.40;;;;;;;20.99;nan;100161.63;5111538;28;20047;-57
2022/03/18 04:34:29;;;;;;;2.10;1.50;;;;;;;20.98;nan;100160.84;5111531;28;20552;-57
2022/03/18 04:36:54;;;;;;;2.10;1.40;;;;;;;20.99;nan;100162.44;5111526;28;20112;-57
2022/03/18 04:39:19;;;;;;;2.58;1.63;;;;;;;20.97;nan;100163.97;5109361;28;20074;-57
2022/03/18 04:41:45;;;;;;;1.73;1.23;;;;;;;20.96;nan;100159.59;5092855;28;20058;-57
2022/03/18 04:44:10;;;;;;;2.05;1.30;;;;;;;20.96;nan;100163.16;5111308;28;20495;-57
2022/03/18 04:46:36;;;;;;;2.10;1.30;;;;;;;20.98;nan;100165.59;5111423;28;20031;-57
2022/03/18 04:49:01;;;;;;;1.90;1.30;;;;;;;20.99;nan;100167.19;5111201;28;20046;-58
2022/03/18 04:51:27;;;;;;;1.60;1.10;;;;;;;20.97;nan;100163.97;5111148;28;20043;-57
2022/03/18 04:53:52;;;;;;;2.33;1.48;;;;;;;21.00;nan;100168.81;5111195;28;20480;-58
2022/03/18 04:59:03;;;;;;;2.00;1.20;;;;;;;21.00;nan;100171.59;5110681;28;20437;-57
2022/03/18 05:01:28;;;;;;;2.00;1.40;;;;;;;20.98;nan;100169.16;5110930;28;20046;-57
2022/03/18 05:03:55;;;;;;;1.75;1.15;;;;;;;20.98;nan;100176.72;5109831;28;20035;-57
2022/03/18 05:06:21;;;;;;;1.70;1.27;;;;;;;20.98;nan;100165.59;5110647;28;20047;-57
2022/03/18 05:08:46;;;;;;;2.22;1.33;;;;;;;20.98;nan;100171.94;5110751;28;20047;-57
2022/03/18 05:11:15;;;;;;;1.75;1.15;;;;;;;21.01;nan;100178.78;5111050;28;20069;-57
2022/03/18 05:13:40;;;;;;;1.80;1.20;;;;;;;21.02;nan;100177.63;5109245;28;20055;-57
2022/03/18 05:16:06;;;;;;;1.83;1.30;;;;;;;21.01;nan;100182.38;5110785;28;20044;-57
2022/03/18 05:18:31;;;;;;;2.05;1.50;;;;;;;21.01;nan;100176.81;5110938;28;20315;-58
2022/03/18 05:20:57;;;;;;;1.60;1.15;;;;;;;21.01;nan;100178.78;5110904;28;20066;-58
2022/03/18 05:23:23;;;;;;;1.90;1.23;;;;;;;21.01;nan;100179.59;5110729;28;20074;-57
2022/03/18 05:25:48;;;;;;;1.90;1.30;;;;;;;21.05;nan;100182.47;5110838;28;20100;-57
2022/03/18 05:28:14;;;;;;;1.75;1.17;;;;;;;21.04;nan;100184.44;5110640;28;20036;-58
2022/03/18 05:30:40;;;;;;;1.90;1.27;;;;;;;21.06;nan;100186.84;5110754;28;20047;-57
2022/03/18 05:33:06;;;;;;;1.90;1.13;;;;;;;21.05;nan;100191.59;5110652;28;20039;-58
2022/03/18 05:35:31;;;;;;;1.70;1.30;;;;;;;21.06;nan;100193.22;5110718;28;20073;-57
2022/03/18 05:37:57;;;;;;;2.00;1.20;;;;;;;21.08;nan;100195.66;5110653;28;20138;-57
2022/03/18 05:40:22;;;;;;;1.30;0.93;;;;;;;21.08;nan;100190.09;5110315;28;20134;-58
2022/03/18 05:42:48;;;;;;;1.70;1.20;;;;;;;21.08;nan;100198.44;5110219;28;20050;-57
2022/03/18 05:45:14;;;;;;;1.98;1.25;;;;;;;21.09;nan;100202.84;5110720;28;20035;-57
2022/03/18 05:47:40;;;;;;;1.77;1.10;;;;;;;21.11;nan;100197.72;5110361;28;20122;-57
2022/03/18 05:50:07;;;;;;;1.90;1.30;;;;;;;21.09;nan;100203.66;5110334;28;20397;-57
2022/03/18 05:52:34;;;;;;;1.65;1.23;;;;;;;21.11;nan;100206.06;5110445;28;20047;-57
2022/03/18 05:54:59;;;;;;;1.88;1.25;;;;;;;21.12;nan;100210.47;5110437;28;20043;-57
2022/03/18 05:57:28;;;;;;;2.53;1.50;;;;;;;21.10;nan;100207.25;5110344;28;20048;-57
2022/03/18 05:59:56;;;;;;;2.20;1.40;;;;;;;21.12;nan;100213.25;5110245;28;20066;-58
2022/03/18 06:02:22;;;;;;;1.92;1.33;;;;;;;21.11;nan;100206.06;5110139;28;20047;-58
2022/03/18 06:04:48;;;;;;;1.45;1.13;;;;;;;21.12;nan;100213.25;5110142;28;20058;-57
2022/03/18 06:07:14;;;;;;;1.70;1.20;;;;;;;21.13;nan;100210.09;5110242;28;20032;-57
2022/03/18 06:12:25;;;;;;;1.85;1.38;;;;;;;21.12;nan;100216.84;5109381;28;20107;-58
2022/03/18 06:14:51;;;;;;;2.05;1.40;;;;;;;21.12;nan;100221.59;5110200;28;20135;-57
2022/03/18 06:17:16;;;;;;;2.05;1.30;;;;;;;21.14;nan;100222.03;5113313;28;20192;-58
2022/03/18 06:19:42;;;;;;;2.20;1.58;;;;;;;21.10;nan;100219.16;5113629;28;20044;-57
2022/03/18 06:22:08;;;;;;;2.00;1.30;;;;;;;21.14;nan;100224.81;5113531;28;20036;-58
2022/03/18 06:24:34;;;;;;;5.45;1.35;;;;;;;21.16;nan;100228.06;5111473;28;20576;-58
2022/03/18 06:27:00;;;;;;;8.30;1.27;;;;;;;21.16;nan;100228.88;5113532;28;20130;-57
2022/03/18 06:29:27;;;;;;;2.90;1.50;;;;;;;21.18;nan;100231.28;5113380;28;20079;-58
2022/03/18 06:31:54;;;;;;;2.20;1.48;;;;;;;21.17;nan;100238.84;5113640;28;20055;-58
2022/03/18 06:34:23;;;;;;;2.65;1.58;;;;;;;21.17;nan;100235.25;5111443;28;20047;-57
2022/03/18 06:36:50;;;;;;;2.50;1.70;;;;;;;21.15;nan;100235.59;5113410;28;20501;-57
2022/03/18 06:39:17;;;;;;;2.88;1.70;;;;;;;21.15;nan;100237.59;5113113;28;20138;-57
2022/03/18 06:41:42;;;;;;;2.30;1.50;;;;;;;21.15;nan;100240.38;5113188;28;20050;-57
2022/03/18 06:44:08;;;;;;;2.35;1.50;;;;;;;21.16;nan;100239.19;5113038;28;20044;-57
2022/03/18 06:46:37;;;;;;;2.42;1.40;;;;;;;21.14;nan;100231.19;5113243;28;20050;-58
2022/03/18 06:49:04;;;;;;;2.38;1.52;;;;;;;21.14;nan;100239.53;5094828;28;20423;-58
2022/03/18 06:51:29;;;;;;;2.25;1.52;;;;;;;21.14;nan;100235.94;5113093;28;20047;-58
2022/03/18 06:53:55;;;;;;;2.80;1.80;;;;;;;21.14;nan;100244.28;5113377;28;20050;-57
2022/03/18 06:56:21;;;;;;;2.20;1.60;;;;;;;21.13;nan;100237.91;5094729;28;20040;-58
2022/03/18 06:58:46;;;;;;;3.35;1.65;;;;;;;21.13;nan;100234.31;5113006;28;20035;-58
2022/03/18 07:01:12;;;;;;;2.20;1.50;;;;;;;21.13;nan;100240.69;5112915;28;20066;-58
2022/03/18 07:03:38;;;;;;;2.15;1.55;;;;;;;21.11;nan;100240.25;5112937;28;20036;-58
2022/03/18 07:06:04;;;;;;;2.10;1.58;;;;;;;21.11;nan;100240.25;5112903;28;20093;-58
2022/03/18 07:08:29;;;;;;;2.00;1.40;;;;;;;21.12;nan;100244.66;5112825;28;20043;-57
2022/03/18 07:10:55;;;;;;;2.15;1.50;;;;;;;21.13;nan;100245.47;5112985;28;20329;-57
2022/03/18 07:13:20;;;;;;;2.92;1.90;;;;;;;21.14;nan;100241.50;5112913;28;20507;-58
2022/03/18 07:15:46;;;;;;;2.20;1.60;;;;;;;21.13;nan;100243.47;5112739;28;20507;-57
2022/03/18 07:18:14;;;;;;;2.10;1.50;;;;;;;21.14;nan;100244.28;5112835;28;20521;-61
2022/03/18 07:20:40;;;;;;;2.10;1.60;;;;;;;21.16;nan;100245.56;5112786;28;20039;-61
2022/03/18 07:23:11;;;;;;;2.33;1.60;;;;;;;21.16;nan;100247.53;5112558;28;20131;-61
2022/03/18 07:25:41;;;;;;;2.58;1.75;;;;;;;21.16;nan;100250.31;5112793;28;20145;-61
2022/03/18 07:28:10;;;;;;;2.35;1.77;;;;;;;21.14;nan;100250.66;5111511;28;20484;-61
2022/03/18 07:30:37;;;;;;;2.88;1.90;;;;;;;21.14;nan;100249.84;5112359;28;20044;-61
2022/03/18 07:33:03;;;;;;;3.58;1.90;;;;;;;21.14;nan;100247.06;5119216;28;20133;-62
2022/03/18 07:35:30;;;;;;;2.90;1.80;;;;;;;21.13;nan;100254.59;5132999;28;20035;-61
2022/03/18 07:37:56;;;;;;;2.55;1.90;;;;;;;21.13;nan;100259.38;5128303;28;20047;-61
2022/03/18 07:40:21;;;;;;;2.17;1.58;;;;;;;21.13;nan;100257.38;5101949;28;20053;-60
2022/03/18 07:42:52;;;;;;;2.33;1.60;;;;;;;21.16;nan;100255.88;5091491;28;20047;-59
2022/03/18 07:45:20;;;;;;;4.07;1.60;;;;;;;21.19;nan;100263.50;5110697;28;20180;-59
2022/03/18 07:47:46;;;;;;;2.63;1.67;;;;;;;21.19;nan;100262.69;5107567;28;20134;-61
2022/03/18 07:50:12;;;;;;;2.85;1.88;;;;;;;21.20;nan;100264.31;5086833;28;20039;-61
2022/03/18 07:52:38;;;;;;;2.88;2.00;;;;;;;21.19;nan;100268.25;5075659;28;20058;-62
2022/03/18 07:55:03;;;;;;;2.78;1.70;;;;;;;21.17;nan;100272.22;5097398;28;20559;-60
2022/03/18 07:57:29;;;;;;;3.15;1.80;;;;;;;21.17;nan;100268.63;5103564;28;20122;-61
2022/03/18 07:59:54;;;;;;;5.75;2.45;;;;;;;21.12;nan;100269.69;5105652;28;20056;-61
2022/03/18 08:02:20;;;;;;;5.00;3.70;;;;;;;21.09;nan;100275.16;5104084;28;20472;-59
2022/03/18 08:04:48;;;;;;;6.30;4.60;;;;;;;21.07;nan;100274.69;5101372;28;20135;-62
2022/03/18 08:07:14;;;;;;;7.00;4.75;;;;;;;21.12;nan;100272.47;5100533;28;20499;-62
2022/03/18 08:09:39;;;;;;;7.70;4.50;;;;;;;21.16;nan;100283.72;5104000;28;20043;-61
2022/03/18 08:12:05;;;;;;;6.57;4.40;;;;;;;21.15;nan;100282.09;5106037;28;20093;-62
2022/03/18 08:14:31;;;;;;;5.80;3.60;;;;;;;21.15;nan;100270.97;5096950;28;20131;-62
2022/03/18 08:16:57;;;;;;;6.40;3.30;;;;;;;21.19;nan;100285.75;5104294;28;20119;-61
2022/03/18 08:19:22;;;;;;;5.05;2.92;;;;;;;21.21;nan;100302.09;5104299;28;20051;-61
2022/03/18 08:21:48;;;;;;;4.13;2.70;;;;;;;21.21;nan;100290.97;5107085;28;20496;-62
2022/03/18 08:24:13;;;;;;;3.92;2.80;;;;;;;21.20;nan;100294.91;5103528;28;20059;-62
2022/03/18 08:26:39;;;;;;;3.97;2.50;;;;;;;21.19;nan;100291.31;5102578;28;20040;-61
2022/03/18 08:29:05;;;;;;;3.88;2.40;;;;;;;21.22;nan;100298.97;5102431;28;20074;-61
2022/03/18 08:31:30;;;;;;;4.57;2.42;;;;;;;21.21;nan;100293.75;5101453;28;20082;-62
2022/03/18 08:33:56;;;;;;;4.90;2.35;;;;;;;21.21;nan;100302.09;5098709;28;20036;-62
2022/03/18 08:36:22;;;;;;;3.40;2.60;;;;;;;21.22;nan;100309.28;5102128;28;20051;-62
2022/03/18 08:38:48;;;;;;;3.72;2.47;;;;;;;21.21;nan;100308.47;5093694;28;20044;-62
2022/03/18 08:41:14;;;;;;;3.53;2.35;;;;;;;21.21;nan;100302.91;5102294;28;20095;-61
2022/03/18 08:43:39;;;;;;;4.55;2.10;;;;;;;21.17;nan;100307.56;5097065;28;20057;-63
2022/03/18 08:46:05;;;;;;;14.35;2.55;;;;;;;21.19;nan;100310.81;5098264;28;20114;-64
2022/03/18 08:48:31;;;;;;;4.57;2.70;;;;;;;21.17;nan;100313.94;5097838;28;20462;-62
2022/03/18 08:50:56;;;;;;;3.58;2.20;;;;;;;21.17;nan;100319.50;5101867;28;20491;-63
2022/03/18 08:53:22;;;;;;;4.50;2.92;;;;;;;21.15;nan;100321.03;5097335;28;20067;-64
2022/03/18 08:55:47;;;;;;;3.83;2.30;;;;;;;21.17;nan;100324.28;5097112;28;20126;-62
2022/03/18 08:58:14;;;;;;;7.53;2.70;;;;;;;21.16;nan;100328.22;5100579;28;20132;-62
2022/03/18 09:00:39;;;;;;;4.47;2.65;;;;;;;21.14;nan;100327.75;5084304;28;20059;-62
2022/03/18 09:03:05;;;;;;;3.75;2.40;;;;;;;21.14;nan;100331.34;5094104;28;20077;-62
2022/03/18 09:05:31;;;;;;;5.43;2.17;;;;;;;21.13;nan;100329.72;5102112;28;20047;-60
2022/03/18 09:07:57;;;;;;;3.22;2.40;;;;;;;21.13;nan;100340.84;5098143;28;20047;-63
2022/03/18 09:10:22;;;;;;;4.50;2.53;;;;;;;21.12;nan;100338.44;5102640;28;20032;-63
2022/03/18 09:12:50;;;;;;;3.10;2.28;;;;;;;21.09;nan;100337.19;5086731;28;20044;-62
2022/03/18 09:15:16;;;;;;;3.35;2.08;;;;;;;21.09;nan;100344.72;5099026;28;20127;-61
2022/03/18 09:17:42;;;;;;;3.42;2.47;;;;;;;21.07;nan;100339.47;5097554;28;20407;-62
2022/03/18 09:20:08;;;;;;;3.63;2.60;;;;;;;21.08;nan;100343.09;5101635;28;20507;-62
2022/03/18 09:22:33;;;;;;;3.00;2.10;;;;;;;21.07;nan;100335.88;5103497;28;20562;-63
2022/03/18 09:24:59;;;;;;;3.38;2.40;;;;;;;21.07;nan;100339.47;5096156;28;20039;-62
2022/03/18 09:27:24;;;;;;;3.13;2.30;;;;;;;21.06;nan;100337.88;5100401;28;20433;-63
2022/03/18 09:29:49;;;;;;;4.70;2.08;;;;;;;21.06;nan;100340.66;5103498;28;20560;-62
2022/03/18 09:32:15;;;;;;;3.42;2.38;;;;;;;21.06;nan;100351.78;5096530;28;20039;-62
2022/03/18 09:34:41;;;;;;;3.03;2.33;;;;;;;21.06;nan;100340.66;5092202;28;20044;-62
2022/03/18 09:37:06;;;;;;;3.75;2.40;;;;;;;21.06;nan;100343.44;5095080;28;20487;-61
2022/03/18 09:39:32;;;;;;;4.57;2.55;;;;;;;21.06;nan;100345.41;5066172;28;20500;-60
2022/03/18 09:41:58;;;;;;;2.90;2.20;;;;;;;21.07;nan;100347.00;5068038;28;20567;-61
2022/03/18 09:44:23;;;;;;;3.33;2.53;;;;;;;21.07;nan;100345.03;5069177;28;20059;-61
2022/03/18 09:46:50;;;;;;;4.10;2.17;;;;;;;21.09;nan;100350.28;5071640;28;20056;-62
2022/03/18 09:49:18;;;;;;;5.50;2.25;;;;;;;21.09;nan;100351.09;5067795;28;20031;-62
2022/03/18 09:51:46;;;;;;;3.20;2.30;;;;;;;21.07;nan;100347.00;5066145;28;20141;-61
2022/03/18 09:54:12;;;;;;;3.22;2.40;;;;;;;21.08;nan;100351.44;5062800;28;20047;-62
2022/03/18 09:56:43;;;;;;;5.28;2.80;;;;;;;21.08;nan;100351.44;5058297;28;20151;-62
2022/03/18 09:59:10;;;;;;;3.28;2.20;;;;;;;21.09;nan;100355.84;5064236;28;20044;-58
2022/03/18 10:01:36;;;;;;;3.53;2.78;;;;;;;21.07;nan;100349.78;5064268;28;20055;-58
2022/03/18 10:04:12;;;;;;;5.05;2.30;;;;;;;21.06;nan;100351.78;5069419;28;20045;-59
2022/03/18 10:06:42;;;;;;;2.97;2.17;;;;;;;21.08;nan;100352.25;5068378;28;20503;-62
2022/03/18 10:09:08;;;;;;;3.25;2.53;;;;;;;21.08;nan;100362.56;5071621;28;20448;-62
2022/03/18 10:11:38;;;;;;;3.20;2.20;;;;;;;21.09;nan;100358.63;5075287;28;20067;-63
2022/03/18 10:14:08;;;;;;;3.03;2.20;;;;;;;21.07;nan;100361.72;5066441;28;20116;-64
2022/03/18 10:16:37;;;;;;;3.83;2.28;;;;;;;21.08;nan;100362.56;5059444;28;20144;-64
2022/03/18 10:19:12;;;;;;;3.20;2.20;;;;;;;21.06;nan;100351.78;5066534;28;20083;-63
2022/03/18 10:22:01;;;;;;;4.85;2.60;;;;;;;21.09;nan;100353.06;5075137;28;20048;-64
2022/03/18 10:24:28;;;;;;;3.55;2.50;;;;;;;21.10;nan;100360.22;5069973;28;20412;-64
2022/03/18 10:27:12;;;;;;;3.80;2.50;;;;;;;21.10;nan;100357.44;5055277;28;20043;-65
2022/03/18 10:29:43;;;;;;;3.47;2.40;;;;;;;21.09;nan;100361.41;5070951;28;20053;-65
2022/03/18 10:32:09;;;;;;;3.08;2.28;;;;;;;21.13;nan;100365.06;5078825;28;20071;-64
2022/03/18 10:37:25;;;;;;;9.27;2.50;;;;;;;21.10;nan;100363.00;5057646;28;20492;-63
2022/03/18 10:39:59;;;;;;;10.70;3.10;;;;;;;21.08;nan;100368.94;5066523;28;20052;-62
2022/03/18 10:42:25;;;;;;;6.20;3.25;;;;;;;21.08;nan;100365.34;5058321;28;20106;-57
2022/03/18 10:44:51;;;;;;;4.13;2.38;;;;;;;21.08;nan;100365.34;5070660;28;20048;-58
2022/03/18 10:47:34;;;;;;;3.25;2.55;;;;;;;21.07;nan;100361.72;5064955;28;20048;-58
2022/03/18 10:50:08;;;;;;;4.53;2.63;;;;;;;21.09;nan;100366.97;5058406;28;20194;-58
2022/03/18 10:52:35;;;;;;;3.97;2.38;;;;;;;21.09;nan;100369.75;5064555;28;20044;-58
2022/03/18 10:55:36;;;;;;;5.05;2.58;;;;;;;21.07;nan;100363.72;5061224;28;20037;-59
2022/03/18 10:58:08;;;;;;;6.72;2.60;;;;;;;21.07;nan;100364.50;5063521;28;20056;-58
2022/03/18 11:00:43;;;;;;;4.82;2.63;;;;;;;21.06;nan;100357.34;5078460;28;22142;-61
2022/03/18 11:03:11;;;;;;;3.40;2.60;;;;;;;21.06;nan;100360.13;5054120;28;20400;-60
2022/03/18 11:05:38;;;;;;;3.30;2.72;;;;;;;21.09;nan;100359.44;5070998;28;20087;-60
2022/03/18 11:08:07;;;;;;;3.58;2.80;;;;;;;21.12;nan;100360.69;5074366;28;20055;-60
2022/03/18 11:13:28;;;;;;;3.45;2.65;;;;;;;21.13;nan;100363.09;5074479;28;20058;-60
2022/03/18 11:15:55;;;;;;;5.63;2.53;;;;;;;21.17;nan;100360.44;5073760;28;20056;-57
2022/03/18 11:18:21;;;;;;;4.00;2.83;;;;;;;21.13;nan;100363.09;5077395;28;20043;-61
2022/03/18 11:20:50;;;;;;;4.88;2.60;;;;;;;21.17;nan;100363.22;5069727;28;20102;-60
2022/03/18 11:23:18;;;;;;;4.65;2.97;;;;;;;21.14;nan;100358.34;5073557;28;20389;-61
2022/03/18 11:25:48;;;;;;;3.28;2.55;;;;;;;21.14;nan;100369.47;5074472;28;20551;-60
2022/03/18 11:28:16;;;;;;;3.45;2.28;;;;;;;21.10;nan;100358.25;5074714;28;20040;-61
2022/03/18 11:30:44;;;;;;;4.82;2.80;;;;;;;21.08;nan;100360.59;5058186;28;21067;-61
2022/03/18 11:33:10;;;;;;;3.35;2.70;;;;;;;21.07;nan;100360.91;5078111;28;20044;-60
2022/03/18 11:35:48;;;;;;;6.90;3.03;;;;;;;21.07;nan;100363.72;5074732;28;20389;-60
2022/03/18 11:38:16;;;;;;;6.55;2.63;;;;;;;21.05;nan;100352.94;5072809;28;20523;-61
2022/03/18 11:40:57;;;;;;;4.53;2.70;;;;;;;21.04;nan;100356.88;5079014;28;20056;-60
2022/03/18 11:43:51;;;;;;;3.58;2.72;;;;;;;21.04;nan;100370.78;5071927;28;20052;-61
2022/03/18 11:46:17;;;;;;;4.07;2.95;;;;;;;21.05;nan;100377.16;5075533;28;20118;-60
2022/03/18 11:48:49;;;;;;;6.35;3.35;;;;;;;21.01;nan;100370.72;5070156;28;20132;-61
2022/03/18 11:51:37;;;;;;;3.72;2.72;;;;;;;21.01;nan;100370.72;5062365;28;20421;-61
2022/03/18 11:54:10;;;;;;;3.83;2.80;;;;;;;21.03;nan;100365.59;5076559;28;21073;-61
2022/03/18 11:56:39;;;;;;;7.60;2.95;;;;;;;21.02;nan;100362.00;5072539;28;20178;-60